Time;durP1;ratioP1;P1;durP2;ratioP2;P2;SDS_P1;SDS_P2;PMS_P1;PMS_P2;Temp;Humidity;BMP_temperature;BMP_pressure;BME280_temperature;BME280_humidity;BME280_pressure;Samples;Min_cycle;Max_cycle;Signal;HPM_P1;HPM_P2
2022/06/21 00:00:05;;;;;;;3.00;2.20;;;17.30;78.10;;;;;;5078455;28;20477;-72
2022/06/21 00:02:31;;;;;;;4.07;2.40;;;17.30;78.10;;;;;;5089063;28;20399;-71
2022/06/21 00:04:57;;;;;;;3.93;2.60;;;17.20;78.40;;;;;;5077447;28;20844;-71
2022/06/21 00:07:26;;;;;;;2.57;2.27;;;17.20;78.60;;;;;;5088943;28;20438;-72
2022/06/21 00:09:52;;;;;;;8.67;2.63;;;17.00;78.70;;;;;;5076427;28;20290;-74
2022/06/21 00:12:19;;;;;;;2.53;2.10;;;16.80;79.30;;;;;;5083543;28;20444;-73
2022/06/21 00:14:44;;;;;;;2.23;1.97;;;16.80;79.90;;;;;;5083641;28;20433;-72
2022/06/21 00:17:13;;;;;;;3.63;2.70;;;16.40;80.30;;;;;;5084485;28;20429;-71
2022/06/21 00:19:41;;;;;;;2.97;2.33;;;16.30;81.40;;;;;;5075592;28;20618;-72
2022/06/21 00:22:14;;;;;;;3.03;2.00;;;16.40;81.80;;;;;;5083974;28;20433;-72
2022/06/21 00:24:39;;;;;;;4.40;2.50;;;16.40;81.80;;;;;;5083458;28;20413;-72
2022/06/21 00:27:17;;;;;;;2.93;2.30;;;16.50;82.10;;;;;;5083375;28;20450;-72
2022/06/21 00:29:43;;;;;;;3.10;2.17;;;16.60;81.80;;;;;;5074283;28;20528;-71
2022/06/21 00:32:15;;;;;;;4.67;2.50;;;16.70;81.80;;;;;;5080954;28;20421;-72
2022/06/21 00:34:42;;;;;;;10.33;2.47;;;16.80;81.10;;;;;;5082715;28;20417;-72
2022/06/21 00:37:17;;;;;;;4.23;2.23;;;16.90;80.50;;;;;;5082350;28;20424;-71
2022/06/21 00:39:43;;;;;;;3.33;2.10;;;16.90;80.00;;;;;;5077026;28;20504;-71
2022/06/21 00:42:30;;;;;;;2.57;2.20;;;16.90;80.00;;;;;;5083692;28;20421;-71
2022/06/21 00:45:16;;;;;;;2.53;1.90;;;16.90;80.50;;;;;;5081847;28;20410;-71
2022/06/21 00:47:44;;;;;;;2.73;2.57;;;16.70;80.90;;;;;;5077567;28;20474;-71
2022/06/21 00:50:15;;;;;;;5.10;3.10;;;16.60;81.70;;;;;;5079199;28;20496;-70
2022/06/21 00:52:52;;;;;;;3.80;2.03;;;16.50;82.10;;;;;;5079388;28;20421;-72
2022/06/21 00:55:35;;;;;;;3.93;2.30;;;16.50;82.50;;;;;;5081143;28;20412;-71
2022/06/21 00:58:01;;;;;;;4.90;2.57;;;16.50;82.50;;;;;;5078189;28;20425;-73
2022/06/21 01:00:32;;;;;;;3.80;2.37;;;16.60;82.10;;;;;;5082276;28;20503;-71
2022/06/21 01:03:03;;;;;;;3.77;2.00;;;16.50;82.10;;;;;;5086070;28;20505;-72
2022/06/21 01:05:31;;;;;;;3.30;2.10;;;16.50;82.20;;;;;;5079166;28;20411;-71
2022/06/21 01:07:58;;;;;;;3.10;2.30;;;16.40;82.20;;;;;;5085733;28;20752;-73
2022/06/21 01:10:26;;;;;;;3.70;2.63;;;16.40;82.40;;;;;;5074809;28;20964;-72
2022/06/21 01:13:01;;;;;;;3.53;2.23;;;16.30;82.40;;;;;;5081458;28;20495;-71
2022/06/21 01:15:33;;;;;;;3.23;2.20;;;16.20;82.70;;;;;;5077773;28;20478;-72
2022/06/21 01:18:03;;;;;;;3.37;2.40;;;16.10;82.70;;;;;;5080687;28;20449;-72
2022/06/21 01:20:33;;;;;;;3.30;2.13;;;16.10;83.00;;;;;;5077241;28;20496;-71
2022/06/21 01:23:08;;;;;;;3.50;2.60;;;16.00;83.30;;;;;;5080575;28;20438;-73
2022/06/21 01:26:14;;;;;;;2.63;2.03;;;15.90;83.60;;;;;;5080257;28;20412;-70
2022/06/21 01:28:40;;;;;;;4.77;2.60;;;15.90;83.60;;;;;;5079498;28;20420;-71
2022/06/21 01:31:06;;;;;;;4.83;2.00;;;15.90;84.10;;;;;;5083834;28;20463;-72
2022/06/21 01:33:36;;;;;;;3.37;2.60;;;15.90;84.00;;;;;;5081084;28;20449;-72
2022/06/21 01:36:13;;;;;;;2.77;2.07;;;15.90;84.00;;;;;;5084521;28;20445;-74
2022/06/21 01:38:45;;;;;;;3.43;2.23;;;15.90;84.30;;;;;;5083895;28;20460;-71
2022/06/21 01:41:18;;;;;;;2.80;2.50;;;15.90;84.30;;;;;;5081102;28;20442;-71
2022/06/21 01:43:48;;;;;;;4.57;2.70;;;15.90;84.30;;;;;;5072346;28;20442;-70
2022/06/21 01:46:18;;;;;;;3.30;2.53;;;15.90;84.30;;;;;;5081280;28;20425;-71
2022/06/21 01:48:48;;;;;;;2.90;1.93;;;15.90;84.10;;;;;;5077872;28;20413;-71
2022/06/21 01:51:29;;;;;;;3.47;2.50;;;15.80;84.40;;;;;;5075608;28;20437;-72
2022/06/21 01:53:58;;;;;;;4.47;2.43;;;15.70;84.40;;;;;;5078719;28;20789;-71
2022/06/21 01:56:30;;;;;;;3.73;2.43;;;15.70;83.80;;;;;;5079069;28;20420;-73
2022/06/21 01:59:03;;;;;;;2.90;2.17;;;15.70;82.40;;;;;;5078459;28;20462;-74
2022/06/21 02:01:43;;;;;;;5.23;2.30;;;15.70;81.40;;;;;;5076378;28;20413;-72
2022/06/21 02:04:10;;;;;;;3.03;2.40;;;15.70;81.10;;;;;;5084168;28;20914;-70
2022/06/21 02:06:41;;;;;;;5.13;2.73;;;15.70;80.80;;;;;;5080534;28;20418;-72
2022/06/21 02:09:25;;;;;;;12.30;3.13;;;15.70;81.20;;;;;;5080696;28;20437;-71
2022/06/21 02:12:02;;;;;;;3.90;2.50;;;15.60;80.80;;;;;;5075652;28;20928;-72
2022/06/21 02:14:28;;;;;;;6.30;2.37;;;15.60;80.90;;;;;;5085587;28;20417;-72
2022/06/21 02:17:04;;;;;;;4.37;2.60;;;15.60;80.50;;;;;;5086876;28;20467;-71
2022/06/21 02:19:33;;;;;;;5.90;2.40;;;15.60;80.00;;;;;;5094063;28;20465;-72
2022/06/21 02:21:59;;;;;;;4.90;2.70;;;15.60;80.30;;;;;;5091092;28;20424;-71
2022/06/21 02:24:30;;;;;;;4.23;2.60;;;15.50;80.30;;;;;;5092316;28;20421;-70
2022/06/21 02:26:57;;;;;;;3.90;2.57;;;15.50;80.30;;;;;;5095941;28;20532;-73
2022/06/21 02:29:23;;;;;;;3.23;2.10;;;15.60;81.80;;;;;;5087785;28;20465;-70
2022/06/21 02:31:49;;;;;;;6.13;2.83;;;15.60;81.70;;;;;;5088580;28;20417;-72
2022/06/21 02:34:22;;;;;;;5.20;2.53;;;15.70;81.50;;;;;;5087344;28;20945;-72
2022/06/21 02:36:55;;;;;;;3.10;2.00;;;15.80;80.90;;;;;;5085677;28;20420;-72
2022/06/21 02:39:25;;;;;;;5.43;2.93;;;15.90;80.30;;;;;;5078120;28;20485;-72
2022/06/21 02:41:59;;;;;;;3.70;2.73;;;15.80;80.30;;;;;;5085791;28;20445;-71
2022/06/21 02:44:39;;;;;;;2.60;2.37;;;15.80;80.20;;;;;;5074610;28;20513;-72
2022/06/21 02:47:15;;;;;;;4.40;2.27;;;15.80;80.20;;;;;;5086000;28;20407;-72
2022/06/21 02:49:51;;;;;;;2.47;2.27;;;15.80;80.00;;;;;;5077627;28;20475;-71
2022/06/21 02:52:26;;;;;;;3.13;2.23;;;15.90;79.60;;;;;;5083778;28;20428;-72
2022/06/21 02:55:20;;;;;;;4.50;2.30;;;15.90;79.50;;;;;;5083298;28;20482;-73
2022/06/21 02:57:51;;;;;;;3.63;2.40;;;15.90;79.30;;;;;;5080797;28;21172;-71
2022/06/21 03:00:19;;;;;;;3.73;2.40;;;15.70;78.70;;;;;;5077327;28;20474;-70
2022/06/21 03:02:45;;;;;;;3.37;2.50;;;15.60;79.00;;;;;;5082923;28;20458;-70
2022/06/21 03:05:18;;;;;;;3.20;2.50;;;15.60;79.30;;;;;;5087775;28;20463;-71
2022/06/21 03:07:53;;;;;;;2.77;2.00;;;15.60;79.60;;;;;;5084904;28;20417;-72
2022/06/21 03:10:34;;;;;;;3.50;2.50;;;15.60;79.70;;;;;;5085720;28;20974;-73
2022/06/21 03:13:19;;;;;;;3.60;2.70;;;15.60;79.60;;;;;;5080851;28;20488;-70
2022/06/21 03:15:50;;;;;;;4.30;2.60;;;15.50;79.60;;;;;;5087775;28;21000;-71
2022/06/21 03:18:22;;;;;;;3.10;2.40;;;15.40;80.00;;;;;;5084256;28;20463;-71
2022/06/21 03:20:50;;;;;;;3.40;2.70;;;15.30;80.00;;;;;;5082115;28;20464;-72
2022/06/21 03:23:17;;;;;;;5.90;2.63;;;15.30;80.30;;;;;;5083829;28;21011;-72
2022/06/21 03:25:50;;;;;;;3.33;2.47;;;15.20;80.50;;;;;;5080118;28;20423;-73
2022/06/21 03:28:35;;;;;;;3.83;2.23;;;15.20;80.90;;;;;;5082965;28;20409;-73
2022/06/21 03:31:09;;;;;;;5.57;2.60;;;15.10;81.20;;;;;;5078146;28;20937;-71
2022/06/21 03:33:39;;;;;;;5.23;2.80;;;15.10;81.50;;;;;;5085779;28;20951;-71
2022/06/21 03:36:08;;;;;;;2.70;2.47;;;15.20;81.10;;;;;;5077357;28;20487;-74
2022/06/21 03:38:36;;;;;;;5.70;2.37;;;15.20;81.10;;;;;;5085009;28;20477;-71
2022/06/21 03:43:57;;;;;;;4.13;3.00;;;15.20;81.40;;;;;;5080293;28;20436;-71
2022/06/21 03:46:32;;;;;;;3.00;2.50;;;15.20;80.80;;;;;;5078733;28;20486;-72
2022/06/21 03:49:02;;;;;;;4.53;2.27;;;15.30;80.20;;;;;;5079788;28;20418;-73
2022/06/21 03:51:34;;;;;;;3.17;2.47;;;15.30;79.70;;;;;;5088628;28;20493;-71
2022/06/21 03:54:36;;;;;;;10.57;2.57;;;15.40;79.60;;;;;;5082310;28;20898;-70
2022/06/21 03:57:12;;;;;;;5.57;2.50;;;15.40;79.60;;;;;;5011480;28;20421;-70
2022/06/21 04:00:00;;;;;;;6.17;2.53;;;15.50;79.50;;;;;;5024698;28;20488;-72
2022/06/21 04:02:33;;;;;;;3.80;2.50;;;15.50;79.20;;;;;;5028257;28;20420;-71
2022/06/21 04:05:43;;;;;;;5.80;2.80;;;15.60;78.10;;;;;;5024692;28;20449;-69
2022/06/21 04:08:19;;;;;;;2.80;2.40;;;15.70;77.70;;;;;;5020130;28;20428;-70
2022/06/21 04:11:01;;;;;;;4.90;2.40;;;15.80;77.00;;;;;;5024832;28;20975;-71
2022/06/21 04:13:45;;;;;;;7.50;2.47;;;16.00;75.70;;;;;;5022482;28;20424;-72
2022/06/21 04:16:19;;;;;;;9.00;2.80;;;16.10;75.40;;;;;;5024598;28;20576;-71
2022/06/21 04:19:20;;;;;;;2.83;2.40;;;16.10;75.20;;;;;;5008129;28;20552;-72
2022/06/21 04:21:49;;;;;;;5.40;2.80;;;16.10;75.40;;;;;;5010677;28;20429;-70
2022/06/21 04:24:25;;;;;;;3.77;2.90;;;16.20;74.80;;;;;;5027123;28;20424;-69
2022/06/21 04:27:03;;;;;;;4.10;2.80;;;16.40;73.60;;;;;;5018444;28;20810;-70
2022/06/21 04:29:29;;;;;;;6.33;2.50;;;16.40;71.80;;;;;;5021526;28;20998;-69
2022/06/21 04:32:08;;;;;;;6.23;2.83;;;16.40;71.30;;;;;;5035636;28;20445;-71
2022/06/21 04:35:05;;;;;;;4.90;3.40;;;16.50;70.70;;;;;;5091556;28;20416;-69
2022/06/21 04:37:53;;;;;;;4.00;2.60;;;16.60;70.10;;;;;;5089815;28;20931;-71
2022/06/21 04:40:24;;;;;;;7.17;3.50;;;16.60;69.40;;;;;;5087837;28;20468;-72
2022/06/21 04:43:17;;;;;;;3.37;2.67;;;16.70;69.20;;;;;;5096044;28;20423;-70
2022/06/21 04:45:49;;;;;;;7.03;3.10;;;16.80;68.60;;;;;;5086397;28;20410;-71
2022/06/21 04:48:43;;;;;;;5.83;3.20;;;16.90;68.00;;;;;;5089304;28;20431;-72
2022/06/21 04:51:15;;;;;;;6.90;2.63;;;17.00;67.30;;;;;;5082253;28;20459;-72
2022/06/21 04:54:04;;;;;;;6.20;3.00;;;17.00;66.40;;;;;;5082396;28;21088;-73
2022/06/21 04:56:44;;;;;;;8.57;3.33;;;17.00;66.00;;;;;;5079117;28;20410;-72
2022/06/21 04:59:42;;;;;;;10.30;3.30;;;16.80;66.70;;;;;;5077570;28;20607;-74
2022/06/21 05:02:30;;;;;;;4.87;3.17;;;16.90;66.00;;;;;;5069054;28;20493;-73
2022/06/21 05:05:03;;;;;;;4.60;2.90;;;16.80;65.80;;;;;;5077251;28;20777;-73
2022/06/21 05:07:32;;;;;;;9.40;3.30;;;16.90;65.70;;;;;;5086441;28;20507;-72
2022/06/21 05:10:00;;;;;;;5.03;2.80;;;16.90;65.60;;;;;;5088592;28;20456;-71
2022/06/21 05:12:27;;;;;;;3.60;3.00;;;17.10;65.70;;;;;;5096131;28;20421;-72
2022/06/21 05:15:00;;;;;;;5.50;3.80;;;17.30;65.10;;;;;;5096758;28;20444;-70
2022/06/21 05:17:27;;;;;;;6.40;3.33;;;17.30;65.40;;;;;;5085102;28;20479;-72
2022/06/21 05:20:00;;;;;;;4.60;2.90;;;17.40;65.30;;;;;;5083226;28;20479;-72
2022/06/21 05:22:35;;;;;;;6.03;3.10;;;17.30;65.10;;;;;;5098665;28;20505;-72
2022/06/21 05:25:05;;;;;;;4.53;3.00;;;17.40;65.00;;;;;;5092125;28;20875;-69
2022/06/21 05:27:44;;;;;;;5.97;3.17;;;17.20;64.70;;;;;;5080036;28;20779;-70
2022/06/21 05:30:13;;;;;;;5.53;3.20;;;17.20;65.40;;;;;;5080198;28;20502;-72
2022/06/21 05:32:47;;;;;;;4.13;2.90;;;17.20;65.40;;;;;;5079502;28;20479;-72
2022/06/21 05:35:20;;;;;;;4.50;2.47;;;17.20;65.30;;;;;;5082483;28;20455;-72
2022/06/21 05:37:58;;;;;;;5.10;3.10;;;17.20;65.30;;;;;;5079539;28;21114;-71
2022/06/21 05:41:02;;;;;;;4.37;2.47;;;17.30;65.60;;;;;;5081029;28;20502;-71
2022/06/21 05:43:47;;;;;;;4.93;3.30;;;17.40;65.30;;;;;;5079370;28;20478;-72
2022/06/21 05:46:19;;;;;;;7.80;2.37;;;17.40;64.70;;;;;;5083805;28;20418;-71
2022/06/21 05:48:45;;;;;;;4.80;2.67;;;17.60;64.50;;;;;;5088730;28;20436;-72
2022/06/21 05:51:28;;;;;;;5.13;3.20;;;17.60;63.90;;;;;;5077086;28;20466;-71
2022/06/21 05:54:04;;;;;;;8.63;2.90;;;17.70;63.80;;;;;;5080989;28;20418;-70
2022/06/21 05:56:31;;;;;;;5.00;2.90;;;17.90;63.50;;;;;;5073281;28;20411;-70
2022/06/21 05:59:01;;;;;;;9.13;3.20;;;18.20;62.80;;;;;;5079207;28;21065;-70
2022/06/21 06:01:39;;;;;;;4.33;2.97;;;18.20;62.30;;;;;;5079076;28;20790;-71
2022/06/21 06:04:23;;;;;;;4.90;2.80;;;18.30;61.60;;;;;;5079072;28;20768;-70
2022/06/21 06:06:51;;;;;;;3.47;2.83;;;18.40;60.60;;;;;;5079911;28;20787;-72
2022/06/21 06:09:30;;;;;;;5.03;2.87;;;18.40;60.40;;;;;;5082221;28;20468;-71
2022/06/21 06:12:11;;;;;;;6.00;2.90;;;18.40;59.70;;;;;;5087422;28;20509;-72
2022/06/21 06:15:21;;;;;;;4.93;2.83;;;18.30;60.60;;;;;;5084519;28;20490;-72
2022/06/21 06:17:49;;;;;;;7.30;3.17;;;18.40;60.40;;;;;;5068243;28;20463;-69
2022/06/21 06:20:21;;;;;;;3.70;2.60;;;18.50;60.10;;;;;;5085880;28;20483;-71
2022/06/21 06:22:50;;;;;;;4.40;2.63;;;18.70;60.00;;;;;;5083390;28;20426;-71
2022/06/21 06:25:25;;;;;;;3.30;2.97;;;18.60;59.70;;;;;;5080491;28;20460;-72
2022/06/21 06:28:12;;;;;;;4.60;2.97;;;18.50;60.40;;;;;;5081467;28;20414;-74
2022/06/21 06:30:47;;;;;;;5.50;3.20;;;18.60;60.60;;;;;;5086185;28;20538;-73
2022/06/21 06:33:21;;;;;;;3.57;2.80;;;18.40;60.70;;;;;;5082415;28;20411;-73
2022/06/21 06:35:48;;;;;;;5.00;2.63;;;18.50;60.90;;;;;;5084966;28;20428;-73
2022/06/21 06:38:16;;;;;;;3.80;2.80;;;18.40;60.70;;;;;;5075658;28;20422;-72
2022/06/21 06:40:58;;;;;;;4.10;2.80;;;18.40;60.60;;;;;;5074195;28;20457;-73
2022/06/21 06:43:34;;;;;;;4.53;2.97;;;18.30;61.50;;;;;;5074126;28;20457;-73
2022/06/21 06:46:00;;;;;;;9.77;3.17;;;18.40;62.00;;;;;;5079482;28;20449;-74
2022/06/21 06:48:32;;;;;;;3.97;2.70;;;18.40;62.00;;;;;;5075262;28;20450;-72
2022/06/21 06:51:16;;;;;;;4.53;3.00;;;18.50;62.00;;;;;;5075652;28;20202;-72
2022/06/21 06:53:50;;;;;;;5.07;2.80;;;18.60;61.30;;;;;;5079961;28;20407;-73
2022/06/21 06:56:20;;;;;;;5.03;2.97;;;18.60;61.50;;;;;;5080896;28;21245;-72
2022/06/21 06:58:57;;;;;;;4.67;3.30;;;18.40;61.50;;;;;;5079811;28;20810;-72
2022/06/21 07:01:41;;;;;;;9.70;3.03;;;18.60;61.60;;;;;;5084373;28;20415;-73
2022/06/21 07:04:11;;;;;;;5.47;2.63;;;18.60;60.70;;;;;;5082300;28;20433;-74
2022/06/21 07:06:47;;;;;;;6.20;3.50;;;18.70;60.40;;;;;;5081906;28;20424;-72
2022/06/21 07:09:19;;;;;;;6.60;3.47;;;18.70;60.10;;;;;;5086419;28;20458;-73
2022/06/21 07:11:55;;;;;;;5.23;3.37;;;18.60;60.70;;;;;;5082904;28;20426;-73
2022/06/21 07:14:26;;;;;;;6.37;3.17;;;18.70;60.10;;;;;;5088009;28;20456;-72
2022/06/21 07:17:06;;;;;;;6.23;3.50;;;18.70;59.90;;;;;;5078851;28;20432;-73
2022/06/21 07:19:32;;;;;;;4.30;2.67;;;18.80;59.70;;;;;;5081663;28;20499;-72
2022/06/21 07:21:58;;;;;;;6.13;2.50;;;19.00;59.70;;;;;;5090151;28;20907;-72
2022/06/21 07:24:24;;;;;;;6.27;3.47;;;19.20;59.70;;;;;;5087769;28;20172;-73
2022/06/21 07:26:58;;;;;;;6.43;3.57;;;19.50;58.50;;;;;;5085907;28;20444;-73
2022/06/21 07:29:45;;;;;;;3.77;3.10;;;19.70;58.10;;;;;;5084454;28;20198;-73
2022/06/21 07:32:15;;;;;;;4.23;3.00;;;19.90;58.10;;;;;;5082098;28;20422;-74
2022/06/21 07:34:55;;;;;;;5.80;3.00;;;20.10;58.00;;;;;;5078676;28;20488;-72
2022/06/21 07:37:34;;;;;;;6.63;4.53;;;20.40;57.80;;;;;;5088595;28;20413;-74
2022/06/21 07:40:29;;;;;;;4.37;3.07;;;20.70;56.40;;;;;;5080876;28;20530;-73
2022/06/21 07:43:11;;;;;;;7.20;3.07;;;20.80;55.70;;;;;;5078916;28;20435;-73
2022/06/21 07:45:48;;;;;;;5.50;2.77;;;20.70;55.40;;;;;;5081257;28;20450;-72
2022/06/21 07:48:37;;;;;;;6.30;3.13;;;20.40;55.60;;;;;;5086815;28;20444;-71
2022/06/21 07:51:15;;;;;;;4.70;3.20;;;20.00;56.50;;;;;;5082009;28;20984;-73
2022/06/21 07:53:45;;;;;;;4.70;3.47;;;20.10;57.00;;;;;;5083820;28;20786;-73
2022/06/21 07:56:25;;;;;;;8.63;3.10;;;20.10;56.90;;;;;;5087389;28;20478;-74
2022/06/21 07:59:02;;;;;;;5.03;3.60;;;20.10;56.80;;;;;;5079844;28;20460;-72
2022/06/21 08:07:31;;;;;;;6.33;3.30;;;20.20;56.20;;;;;;5082856;28;20547;-73
2022/06/21 08:10:05;;;;;;;7.80;4.40;;;20.50;56.80;;;;;;5092324;28;20450;-71
2022/06/21 08:12:31;;;;;;;8.40;4.53;;;20.60;55.60;;;;;;5085981;28;20417;-71
2022/06/21 08:14:59;;;;;;;4.50;3.60;;;20.50;55.70;;;;;;5096409;28;20972;-73
2022/06/21 08:17:35;;;;;;;7.83;3.70;;;20.50;55.70;;;;;;5092181;28;20255;-71
2022/06/21 08:20:01;;;;;;;5.33;3.50;;;20.40;55.70;;;;;;5089527;28;20472;-73
2022/06/21 08:22:39;;;;;;;6.80;3.57;;;20.40;56.00;;;;;;5084588;28;20929;-73
2022/06/21 08:25:16;;;;;;;4.20;3.03;;;20.50;56.50;;;;;;5086080;28;20244;-72
2022/06/21 08:27:41;;;;;;;7.23;3.70;;;20.70;55.80;;;;;;5084110;28;20472;-73
2022/06/21 08:30:20;;;;;;;5.70;3.23;;;20.90;55.60;;;;;;5087871;28;20824;-73
2022/06/21 08:33:00;;;;;;;8.53;3.97;;;20.90;55.40;;;;;;5089515;28;20220;-72
2022/06/21 08:35:33;;;;;;;6.10;3.67;;;21.00;54.80;;;;;;5087367;28;20769;-73
2022/06/21 08:38:01;;;;;;;6.20;3.40;;;21.00;55.20;;;;;;5093864;28;20469;-74
2022/06/21 08:40:36;;;;;;;6.43;3.60;;;20.90;55.70;;;;;;5077640;28;20576;-73
2022/06/21 08:43:14;;;;;;;13.27;4.10;;;20.80;55.80;;;;;;5085194;28;20496;-72
2022/06/21 08:46:09;;;;;;;7.17;3.13;;;21.00;55.70;;;;;;5078832;28;20435;-74
2022/06/21 08:49:07;;;;;;;10.53;3.80;;;20.90;56.00;;;;;;5080883;28;20419;-75
2022/06/21 08:51:48;;;;;;;5.87;3.40;;;20.90;55.40;;;;;;5072652;28;20677;-72
2022/06/21 08:54:41;;;;;;;11.27;3.80;;;21.00;56.10;;;;;;5084606;28;20437;-72
2022/06/21 08:57:16;;;;;;;5.00;3.30;;;20.70;56.60;;;;;;5087154;28;20430;-73
2022/06/21 08:59:54;;;;;;;6.13;3.53;;;20.80;56.50;;;;;;5078846;28;21022;-73
2022/06/21 09:02:51;;;;;;;7.50;3.40;;;20.80;56.90;;;;;;5080673;28;20772;-74
2022/06/21 09:05:24;;;;;;;4.03;3.27;;;21.00;57.80;;;;;;5079117;28;20596;-73
2022/06/21 09:08:06;;;;;;;4.93;3.20;;;21.30;58.40;;;;;;5078552;28;20428;-73
2022/06/21 09:10:45;;;;;;;6.13;3.60;;;21.40;58.50;;;;;;5077388;28;20540;-74
2022/06/21 09:13:40;;;;;;;6.60;3.77;;;21.60;57.80;;;;;;5076181;28;20440;-73
2022/06/21 09:16:27;;;;;;;7.87;4.70;;;21.70;56.60;;;;;;5083003;28;20452;-73
2022/06/21 09:19:24;;;;;;;7.60;4.70;;;21.50;56.40;;;;;;5080600;28;20466;-73
2022/06/21 09:21:56;;;;;;;5.87;3.00;;;21.60;56.50;;;;;;5087400;28;20475;-74
2022/06/21 09:24:41;;;;;;;4.73;3.10;;;21.50;55.60;;;;;;5083452;28;20411;-73
2022/06/21 09:27:28;;;;;;;6.90;4.23;;;21.80;55.40;;;;;;5077280;28;20891;-73
2022/06/21 09:30:17;;;;;;;5.27;3.30;;;21.80;54.90;;;;;;5080446;28;20937;-74
2022/06/21 09:33:13;;;;;;;6.37;5.00;;;21.50;55.70;;;;;;5083997;28;20498;-73
2022/06/21 09:36:03;;;;;;;6.60;3.90;;;21.30;55.80;;;;;;5085637;28;20417;-71
2022/06/21 09:38:37;;;;;;;5.80;3.63;;;21.50;56.00;;;;;;5093639;28;20507;-73
2022/06/21 09:41:03;;;;;;;4.63;3.40;;;21.40;55.70;;;;;;5095636;28;20471;-73
2022/06/21 09:44:00;;;;;;;4.70;3.33;;;21.30;56.00;;;;;;5083702;28;20468;-73
2022/06/21 09:46:40;;;;;;;16.80;8.27;;;21.20;56.50;;;;;;5084100;28;21174;-73
2022/06/21 09:49:31;;;;;;;7.33;3.87;;;21.50;56.10;;;;;;5087130;28;20827;-71
2022/06/21 09:52:20;;;;;;;4.37;3.63;;;21.90;55.60;;;;;;5081350;28;20423;-75
2022/06/21 09:55:15;;;;;;;7.40;4.00;;;22.20;54.80;;;;;;5080774;28;20433;-73
2022/06/21 09:57:45;;;;;;;9.33;3.63;;;22.40;54.80;;;;;;5086078;28;20432;-73
2022/06/21 10:00:19;;;;;;;5.47;3.23;;;22.50;54.90;;;;;;5083313;28;20924;-71
2022/06/21 10:03:02;;;;;;;6.00;3.73;;;22.40;55.40;;;;;;5081334;28;20432;-72
2022/06/21 10:05:59;;;;;;;6.33;3.83;;;22.40;54.90;;;;;;5081938;28;20412;-71
2022/06/21 10:09:03;;;;;;;10.23;4.33;;;22.30;54.90;;;;;;5083702;28;20991;-74
2022/06/21 10:12:01;;;;;;;5.47;3.40;;;22.20;55.30;;;;;;5086262;28;20423;-73
2022/06/21 10:14:29;;;;;;;9.23;5.37;;;22.60;55.60;;;;;;5076166;28;20831;-73
2022/06/21 10:17:20;;;;;;;5.63;4.07;;;22.80;54.40;;;;;;5079968;28;20416;-73
2022/06/21 10:20:13;;;;;;;22.77;4.53;;;22.70;54.60;;;;;;5073023;28;20553;-72
2022/06/21 10:22:47;;;;;;;7.80;4.47;;;23.00;54.60;;;;;;5079957;28;20871;-73
2022/06/21 10:25:38;;;;;;;6.23;3.73;;;23.20;53.80;;;;;;5083564;28;20418;-74
2022/06/21 10:28:20;;;;;;;8.00;4.13;;;23.30;53.70;;;;;;5065715;28;20869;-74
2022/06/21 10:31:05;;;;;;;8.97;3.60;;;23.60;52.90;;;;;;5085875;28;20467;-72
2022/06/21 10:34:18;;;;;;;7.20;4.43;;;23.40;53.60;;;;;;5081971;28;20419;-74
2022/06/21 10:37:21;;;;;;;5.67;4.00;;;23.40;53.60;;;;;;5042130;28;20977;-74
2022/06/21 10:40:11;;;;;;;7.93;4.13;;;23.60;53.70;;;;;;5082888;28;20477;-73
2022/06/21 10:43:02;;;;;;;11.70;4.70;;;23.80;53.30;;;;;;5085998;28;20421;-74
2022/06/21 10:45:45;;;;;;;5.70;4.47;;;24.00;53.30;;;;;;5087410;28;20418;-74
2022/06/21 10:48:33;;;;;;;7.50;4.43;;;23.90;53.80;;;;;;5086208;28;20517;-72
2022/06/21 10:51:26;;;;;;;6.37;4.47;;;24.20;53.70;;;;;;5080381;28;20555;-73
2022/06/21 10:54:23;;;;;;;5.80;4.37;;;24.80;52.40;;;;;;5081094;28;20414;-73
2022/06/21 10:57:13;;;;;;;7.43;4.23;;;25.30;52.00;;;;;;5078226;28;20944;-72
2022/06/21 11:02:50;;;;;;;5.90;4.70;;;25.40;51.40;;;;;;5082056;28;20418;-73
2022/06/21 11:05:37;;;;;;;5.40;4.43;;;25.30;51.60;;;;;;5082079;28;21055;-72
2022/06/21 11:08:40;;;;;;;8.67;6.10;;;25.60;51.30;;;;;;5080634;28;20421;-74
2022/06/21 11:11:17;;;;;;;8.17;4.40;;;25.10;53.00;;;;;;5076055;28;20489;-76
2022/06/21 11:13:58;;;;;;;8.63;5.00;;;25.40;51.80;;;;;;5083933;28;20528;-72
2022/06/21 11:16:49;;;;;;;6.33;4.83;;;25.60;51.70;;;;;;5084465;28;20467;-73
2022/06/21 11:19:42;;;;;;;9.60;5.17;;;25.40;51.80;;;;;;5086833;28;20835;-72
2022/06/21 11:22:14;;;;;;;7.47;5.40;;;24.90;53.60;;;;;;5089475;28;20437;-72
2022/06/21 11:24:54;;;;;;;7.20;5.00;;;24.90;54.40;;;;;;5087496;28;20426;-74
2022/06/21 11:27:33;;;;;;;5.80;4.67;;;25.00;54.00;;;;;;5095119;28;20416;-75
2022/06/21 11:30:04;;;;;;;9.20;5.33;;;25.30;53.30;;;;;;5085563;28;20507;-73
2022/06/21 11:32:33;;;;;;;5.77;4.97;;;25.60;52.90;;;;;;5090302;28;20475;-72
2022/06/21 11:35:14;;;;;;;6.60;4.30;;;25.60;52.90;;;;;;5087520;28;20593;-73
2022/06/21 11:37:58;;;;;;;11.90;5.67;;;25.80;52.50;;;;;;5090339;28;21786;-74
2022/06/21 11:40:48;;;;;;;6.83;5.27;;;25.80;52.20;;;;;;5085784;28;20478;-73
2022/06/21 11:43:21;;;;;;;7.67;4.73;;;25.30;53.70;;;;;;5080670;28;20428;-74
2022/06/21 11:45:50;;;;;;;10.50;5.40;;;25.60;54.00;;;;;;5089665;28;20524;-73
2022/06/21 11:48:36;;;;;;;6.50;5.30;;;25.80;53.30;;;;;;5086878;28;20417;-73
2022/06/21 11:51:11;;;;;;;8.80;5.03;;;25.60;53.80;;;;;;5086755;28;20454;-72
2022/06/21 11:53:55;;;;;;;7.67;4.90;;;25.80;54.00;;;;;;5081968;28;20415;-72
2022/06/21 11:56:33;;;;;;;12.87;5.63;;;26.50;52.20;;;;;;5082736;28;20886;-73
2022/06/21 11:59:13;;;;;;;8.33;6.47;;;27.00;50.90;;;;;;5086219;28;20988;-72
2022/06/21 12:01:45;;;;;;;9.73;6.10;;;26.70;51.40;;;;;;5084149;28;20478;-73
2022/06/21 12:04:38;;;;;;;7.17;5.47;;;26.60;52.10;;;;;;5092256;28;20421;-74
2022/06/21 12:07:11;;;;;;;8.27;5.97;;;26.20;53.60;;;;;;5081666;28;20902;-72
2022/06/21 12:09:55;;;;;;;13.23;5.50;;;26.50;53.70;;;;;;5088367;28;20467;-75
2022/06/21 12:12:35;;;;;;;10.20;5.90;;;27.00;51.80;;;;;;5083913;28;20412;-76
2022/06/21 12:15:04;;;;;;;10.90;5.77;;;27.10;52.00;;;;;;5087301;28;20487;-72
2022/06/21 12:17:51;;;;;;;7.43;6.03;;;27.20;51.70;;;;;;5086141;28;20423;-73
2022/06/21 12:20:25;;;;;;;9.83;5.37;;;27.40;51.40;;;;;;5090508;28;20484;-71
2022/06/21 12:22:58;;;;;;;19.57;5.83;;;27.50;51.40;;;;;;5082754;28;20946;-73
2022/06/21 12:25:24;;;;;;;8.90;5.93;;;27.60;50.90;;;;;;5084512;28;20419;-74
2022/06/21 12:27:51;;;;;;;10.17;6.20;;;27.30;51.60;;;;;;5094951;28;20419;-72
2022/06/21 12:30:25;;;;;;;7.60;5.27;;;27.10;52.20;;;;;;5087551;28;20214;-74
2022/06/21 12:33:00;;;;;;;9.70;5.60;;;27.00;53.20;;;;;;5090137;28;20432;-73
2022/06/21 12:35:47;;;;;;;12.37;6.17;;;27.40;51.80;;;;;;5076867;28;20421;-73
2022/06/21 12:38:18;;;;;;;8.57;5.80;;;27.40;52.50;;;;;;5084547;28;20873;-75
2022/06/21 12:41:00;;;;;;;6.90;5.17;;;27.50;52.20;;;;;;5078213;28;20472;-73
2022/06/21 12:43:52;;;;;;;8.87;5.77;;;27.70;51.80;;;;;;5079232;28;20400;-74
2022/06/21 12:46:59;;;;;;;10.40;6.20;;;27.60;52.00;;;;;;5083980;28;20421;-72
2022/06/21 12:50:06;;;;;;;7.13;5.47;;;27.70;51.80;;;;;;5056353;28;20473;-74
2022/06/21 12:53:02;;;;;;;9.70;5.67;;;27.20;52.50;;;;;;5055021;28;20441;-74
2022/06/21 12:55:35;;;;;;;11.70;7.50;;;26.50;54.60;;;;;;5082050;28;20411;-74
2022/06/21 12:58:23;;;;;;;8.60;6.80;;;26.30;55.20;;;;;;5084787;28;20421;-74
2022/06/21 13:00:53;;;;;;;8.13;5.93;;;26.20;55.60;;;;;;5083567;28;20468;-74
2022/06/21 13:03:51;;;;;;;10.63;6.03;;;26.30;55.60;;;;;;5082441;28;20446;-74
2022/06/21 13:06:37;;;;;;;9.73;6.47;;;26.50;55.40;;;;;;5034573;28;20434;-74
2022/06/21 13:09:15;;;;;;;8.17;6.33;;;27.00;54.10;;;;;;5072575;28;20435;-71
2022/06/21 13:11:59;;;;;;;11.17;6.33;;;26.90;54.20;;;;;;5077484;28;21033;-73
2022/06/21 13:14:28;;;;;;;9.80;6.10;;;27.00;53.80;;;;;;5076901;28;20803;-73
2022/06/21 13:17:18;;;;;;;7.63;5.60;;;27.50;53.20;;;;;;5076282;28;20519;-74
2022/06/21 13:20:20;;;;;;;8.50;5.73;;;27.80;52.80;;;;;;5080228;28;20908;-74
2022/06/21 13:23:13;;;;;;;12.40;6.07;;;27.60;52.50;;;;;;5064221;28;20452;-73
2022/06/21 13:25:48;;;;;;;8.37;6.30;;;27.30;53.40;;;;;;5080138;28;20512;-73
2022/06/21 13:28:36;;;;;;;8.20;6.50;;;27.50;53.60;;;;;;5084630;28;20418;-75
2022/06/21 13:31:25;;;;;;;6.40;5.80;;;27.90;52.40;;;;;;5086225;28;20448;-73
2022/06/21 13:33:59;;;;;;;10.83;6.23;;;27.60;52.80;;;;;;5081080;28;20539;-73
2022/06/21 13:36:46;;;;;;;9.67;6.57;;;26.90;54.80;;;;;;5076963;28;20444;-74
2022/06/21 13:39:33;;;;;;;12.40;6.23;;;27.10;54.80;;;;;;5081667;28;21280;-72
2022/06/21 13:42:43;;;;;;;12.10;6.33;;;27.70;53.20;;;;;;5082326;28;20516;-74
2022/06/21 13:45:32;;;;;;;11.73;6.73;;;27.80;52.60;;;;;;5086331;28;20413;-75
2022/06/21 13:48:01;;;;;;;10.10;6.10;;;27.60;53.20;;;;;;5086066;28;20537;-73
2022/06/21 13:50:40;;;;;;;12.17;6.90;;;27.50;53.30;;;;;;5081002;28;20457;-71
2022/06/21 13:53:13;;;;;;;11.50;6.73;;;27.30;54.00;;;;;;5087391;28;20912;-73